Time;durP1;ratioP1;P1;durP2;ratioP2;P2;SDS_P1;SDS_P2;PMS_P1;PMS_P2;Temp;Humidity;BMP_temperature;BMP_pressure;BME280_temperature;BME280_humidity;BME280_pressure;Samples;Min_cycle;Max_cycle;Signal;HPM_P1;HPM_P2
2024/02/07 00:01:55;;;;;;;3.90;1.60;;;6.20;99.90;;;;;;5050280;28;20484;-63
2024/02/07 00:04:25;;;;;;;3.10;1.10;;;6.20;99.90;;;;;;5053148;28;20478;-63
2024/02/07 00:06:53;;;;;;;4.83;1.33;;;6.20;99.90;;;;;;5049870;28;20490;-63
2024/02/07 00:09:21;;;;;;;5.23;1.27;;;6.20;99.90;;;;;;5057031;28;20947;-63
2024/02/07 00:11:49;;;;;;;8.50;1.50;;;6.20;99.90;;;;;;5054909;28;20612;-63
2024/02/07 00:14:18;;;;;;;6.63;1.30;;;6.20;99.90;;;;;;5053586;28;20564;-63
2024/02/07 00:16:46;;;;;;;4.90;1.73;;;6.20;99.90;;;;;;5052220;28;20502;-62
2024/02/07 00:19:14;;;;;;;7.50;1.60;;;6.20;99.90;;;;;;5052066;28;20590;-63
2024/02/07 00:21:43;;;;;;;5.30;2.90;;;6.20;99.90;;;;;;5047709;28;21056;-62
2024/02/07 00:24:12;;;;;;;5.20;1.50;;;6.20;99.90;;;;;;5055637;28;20893;-63
2024/02/07 00:26:40;;;;;;;4.43;1.60;;;6.20;99.90;;;;;;5051298;28;20581;-63
2024/02/07 00:29:08;;;;;;;4.30;1.70;;;6.20;99.90;;;;;;5053723;28;20465;-63
2024/02/07 00:31:36;;;;;;;4.70;1.20;;;6.20;99.90;;;;;;5054542;28;20485;-62
2024/02/07 00:34:04;;;;;;;5.93;1.43;;;6.20;99.90;;;;;;5054123;28;21796;-63
2024/02/07 00:36:32;;;;;;;10.07;1.80;;;6.20;99.90;;;;;;5051207;28;21029;-62
2024/02/07 00:39:01;;;;;;;2.73;1.33;;;6.20;99.90;;;;;;5055009;28;20501;-62
2024/02/07 00:41:30;;;;;;;3.73;1.27;;;6.20;99.90;;;;;;5050098;28;20573;-63
2024/02/07 00:43:58;;;;;;;4.00;1.83;;;6.20;99.90;;;;;;5047241;28;20568;-62
2024/02/07 00:46:26;;;;;;;3.30;1.00;;;6.30;99.90;;;;;;5051889;28;20493;-63
2024/02/07 00:48:55;;;;;;;5.20;1.63;;;6.20;99.90;;;;;;5051182;28;20526;-63
2024/02/07 00:51:23;;;;;;;3.53;1.17;;;6.20;99.90;;;;;;5051909;28;21150;-62
2024/02/07 00:53:51;;;;;;;3.30;1.50;;;6.20;99.90;;;;;;5052287;28;21049;-63
2024/02/07 00:56:20;;;;;;;4.37;1.37;;;6.20;99.90;;;;;;5050485;28;20933;-62
2024/02/07 00:58:48;;;;;;;3.77;1.73;;;6.20;99.90;;;;;;5048964;28;21246;-62
2024/02/07 01:01:19;;;;;;;7.30;2.00;;;6.30;99.90;;;;;;5046547;28;20478;-62
2024/02/07 01:03:47;;;;;;;4.83;1.67;;;6.30;99.90;;;;;;5054664;28;20471;-62
2024/02/07 01:06:15;;;;;;;8.50;1.80;;;6.30;99.90;;;;;;5052416;28;20510;-62
2024/02/07 01:08:44;;;;;;;3.93;1.47;;;6.20;99.90;;;;;;5051543;28;20478;-63
2024/02/07 01:11:12;;;;;;;3.10;1.40;;;6.20;99.90;;;;;;5047744;28;20486;-63
2024/02/07 01:13:41;;;;;;;5.17;1.90;;;6.20;99.90;;;;;;5053300;28;20936;-63
2024/02/07 01:16:09;;;;;;;10.90;2.00;;;6.20;99.90;;;;;;5048908;28;21001;-63
2024/02/07 01:18:39;;;;;;;7.40;2.30;;;6.30;99.90;;;;;;5055266;28;20470;-61
2024/02/07 01:21:08;;;;;;;8.17;1.60;;;6.20;99.90;;;;;;5050445;28;20494;-63
2024/02/07 01:23:38;;;;;;;8.90;2.20;;;6.20;99.90;;;;;;5056024;28;20462;-62
2024/02/07 01:26:07;;;;;;;5.77;1.83;;;6.20;99.90;;;;;;5055275;28;20505;-62
2024/02/07 01:28:35;;;;;;;6.53;2.07;;;6.20;99.90;;;;;;5055397;28;20569;-61
2024/02/07 01:31:05;;;;;;;5.40;1.20;;;6.20;99.90;;;;;;5056074;28;20472;-62
2024/02/07 01:33:33;;;;;;;5.13;1.53;;;6.20;99.90;;;;;;5057220;28;20491;-62
2024/02/07 01:36:01;;;;;;;3.37;1.30;;;6.20;99.90;;;;;;5054811;28;20502;-62
2024/02/07 01:38:29;;;;;;;4.67;1.60;;;6.20;99.90;;;;;;5053979;28;20923;-63
2024/02/07 01:40:58;;;;;;;7.40;2.00;;;6.20;99.90;;;;;;5056179;28;20527;-62
2024/02/07 01:43:28;;;;;;;4.47;1.47;;;6.20;99.90;;;;;;5054115;28;20519;-62
2024/02/07 01:45:57;;;;;;;4.83;1.53;;;6.20;99.90;;;;;;5054719;28;20501;-63
2024/02/07 01:48:27;;;;;;;7.07;1.83;;;6.20;99.90;;;;;;5050299;28;21029;-63
2024/02/07 01:50:56;;;;;;;6.53;1.67;;;6.20;99.90;;;;;;5053430;28;20480;-63
2024/02/07 01:53:26;;;;;;;5.00;1.63;;;6.20;99.90;;;;;;5057259;28;20512;-63
2024/02/07 01:55:55;;;;;;;8.67;2.40;;;6.30;99.90;;;;;;5057364;28;20568;-62
2024/02/07 01:58:27;;;;;;;3.60;1.60;;;6.30;99.90;;;;;;5057202;28;20983;-62
2024/02/07 02:00:55;;;;;;;6.83;2.90;;;6.20;99.90;;;;;;5055037;28;21045;-63
2024/02/07 02:03:23;;;;;;;5.90;1.70;;;6.20;99.90;;;;;;5055515;28;20877;-63
2024/02/07 02:05:53;;;;;;;4.80;1.33;;;6.20;99.90;;;;;;5054434;28;20803;-63
2024/02/07 02:08:21;;;;;;;9.03;1.83;;;6.20;99.90;;;;;;5052527;28;20750;-63
2024/02/07 02:10:56;;;;;;;3.17;1.13;;;6.10;99.90;;;;;;5055376;28;20560;-62
2024/02/07 02:13:24;;;;;;;6.97;2.13;;;6.20;99.90;;;;;;5053414;28;20493;-63
2024/02/07 02:15:52;;;;;;;10.47;1.90;;;6.20;99.90;;;;;;5055416;28;20492;-62
2024/02/07 02:18:20;;;;;;;6.37;1.53;;;6.20;99.90;;;;;;5054251;28;20476;-62
2024/02/07 02:20:48;;;;;;;5.87;1.97;;;6.20;99.90;;;;;;5056374;28;20626;-63
2024/02/07 02:23:31;;;;;;;5.20;1.57;;;6.20;99.90;;;;;;5050980;28;20466;-62
2024/02/07 02:26:26;;;;;;;7.93;2.23;;;6.10;99.90;;;;;;5055934;28;20502;-62
2024/02/07 02:29:04;;;;;;;9.27;2.20;;;6.10;99.90;;;;;;5056523;28;20474;-63
2024/02/07 02:31:36;;;;;;;6.27;1.70;;;6.20;99.90;;;;;;5054742;28;20504;-62
2024/02/07 02:34:06;;;;;;;7.57;1.83;;;6.20;99.90;;;;;;5058150;28;20542;-62
2024/02/07 02:36:34;;;;;;;5.30;2.03;;;6.20;99.90;;;;;;5053531;28;20526;-63
2024/02/07 02:39:05;;;;;;;6.73;1.67;;;6.10;99.90;;;;;;5056950;28;20476;-63
2024/02/07 02:41:33;;;;;;;6.07;2.03;;;6.10;99.90;;;;;;5054534;28;20478;-63
2024/02/07 02:44:01;;;;;;;10.00;2.27;;;6.10;99.90;;;;;;5055499;28;21428;-63
2024/02/07 02:46:29;;;;;;;5.43;1.50;;;6.20;99.90;;;;;;5051165;28;20576;-62
2024/02/07 02:48:59;;;;;;;6.13;2.47;;;6.20;99.90;;;;;;5055891;28;20565;-63
2024/02/07 02:51:27;;;;;;;5.43;2.53;;;6.20;99.90;;;;;;5052457;28;20489;-62
2024/02/07 02:53:56;;;;;;;7.40;2.03;;;6.20;99.90;;;;;;5055138;28;21111;-62
2024/02/07 02:56:26;;;;;;;7.10;1.90;;;6.20;99.90;;;;;;5055504;28;20994;-62
2024/02/07 02:58:54;;;;;;;8.63;2.10;;;6.20;99.90;;;;;;5056761;28;20458;-63
2024/02/07 03:01:23;;;;;;;8.50;2.10;;;6.30;99.90;;;;;;5054055;28;20490;-62
2024/02/07 03:03:54;;;;;;;9.90;2.57;;;6.30;99.90;;;;;;5055016;28;20902;-63
2024/02/07 03:06:32;;;;;;;8.93;2.07;;;6.20;99.90;;;;;;5053172;28;20490;-64
2024/02/07 03:09:08;;;;;;;14.47;2.80;;;6.20;99.90;;;;;;5054311;28;20462;-62
2024/02/07 03:11:37;;;;;;;9.83;2.40;;;6.20;99.90;;;;;;5054134;28;20517;-63
2024/02/07 03:14:06;;;;;;;8.30;2.30;;;6.30;99.90;;;;;;5053078;28;20496;-63
2024/02/07 03:16:35;;;;;;;9.27;2.13;;;6.20;99.90;;;;;;5053077;28;20677;-63
2024/02/07 03:19:04;;;;;;;9.83;3.03;;;6.20;99.90;;;;;;5054780;28;20959;-62
2024/02/07 03:21:33;;;;;;;8.87;2.70;;;6.20;99.90;;;;;;5052066;28;20490;-62
2024/02/07 03:24:01;;;;;;;8.20;2.37;;;6.20;99.90;;;;;;5056413;28;20560;-63
2024/02/07 03:26:29;;;;;;;8.13;2.40;;;6.20;99.90;;;;;;5052824;28;21092;-62
2024/02/07 03:28:58;;;;;;;9.47;3.03;;;6.20;99.90;;;;;;5052751;28;20566;-61
2024/02/07 03:31:26;;;;;;;8.47;3.00;;;6.20;99.90;;;;;;5051133;28;20490;-62
2024/02/07 03:33:54;;;;;;;6.43;2.27;;;6.10;99.90;;;;;;5051539;28;20896;-61
2024/02/07 03:36:22;;;;;;;6.23;2.60;;;6.20;99.90;;;;;;5052997;28;20525;-63
2024/02/07 03:38:52;;;;;;;11.10;2.50;;;6.20;99.90;;;;;;5054516;28;20852;-62
2024/02/07 03:41:21;;;;;;;8.40;2.40;;;6.10;99.90;;;;;;5051074;28;20501;-63
2024/02/07 03:43:49;;;;;;;9.30;3.40;;;6.10;99.90;;;;;;5052123;28;20569;-62
2024/02/07 03:46:17;;;;;;;9.30;2.73;;;6.20;99.90;;;;;;5053591;28;20930;-63
2024/02/07 03:48:46;;;;;;;13.10;3.10;;;6.10;99.90;;;;;;5052541;28;20510;-62
2024/02/07 03:51:15;;;;;;;6.40;2.33;;;6.10;99.90;;;;;;5051534;28;20896;-63
2024/02/07 03:53:44;;;;;;;11.47;2.80;;;6.10;99.90;;;;;;5055428;28;20494;-62
2024/02/07 03:56:14;;;;;;;9.90;2.17;;;6.10;99.90;;;;;;5052938;28;20521;-62
2024/02/07 03:58:42;;;;;;;10.27;2.43;;;6.10;99.90;;;;;;5054650;28;20475;-62
2024/02/07 04:01:15;;;;;;;7.63;2.20;;;6.10;99.90;;;;;;5053746;28;20516;-63
2024/02/07 04:03:46;;;;;;;6.70;2.37;;;6.10;99.90;;;;;;5050246;28;20505;-62
2024/02/07 04:06:15;;;;;;;11.60;3.07;;;6.20;99.90;;;;;;5050890;28;22071;-62
2024/02/07 04:08:44;;;;;;;5.57;1.90;;;6.20;99.90;;;;;;5055384;28;20480;-62
2024/02/07 05:17:06;;;;;;;5.93;1.80;;;5.50;99.90;;;;;;5049586;28;20595;-63
2024/02/07 05:19:35;;;;;;;6.90;2.10;;;5.40;99.90;;;;;;5053478;28;20661;-63
2024/02/07 05:22:04;;;;;;;11.73;2.37;;;5.40;99.90;;;;;;5052195;28;20489;-62
2024/02/07 05:24:33;;;;;;;6.40;2.07;;;5.40;99.90;;;;;;5050816;28;20485;-61
2024/02/07 05:27:02;;;;;;;8.87;1.67;;;5.50;99.90;;;;;;5052276;28;21070;-63
2024/02/07 05:29:31;;;;;;;6.07;2.07;;;5.40;99.90;;;;;;5046357;28;20473;-63
2024/02/07 05:31:59;;;;;;;14.23;2.70;;;5.40;99.90;;;;;;5048457;28;20493;-62
2024/02/07 05:34:29;;;;;;;7.07;1.90;;;5.40;99.90;;;;;;5052846;28;20470;-63
2024/02/07 05:36:58;;;;;;;11.33;2.47;;;5.40;99.90;;;;;;5049204;28;20490;-64
2024/02/07 05:39:26;;;;;;;7.10;1.90;;;5.40;99.90;;;;;;5055879;28;20543;-63
2024/02/07 05:41:54;;;;;;;6.90;1.97;;;5.40;99.90;;;;;;5051953;28;20514;-63
2024/02/07 05:44:22;;;;;;;8.10;2.40;;;5.40;99.90;;;;;;5052116;28;20480;-63
2024/02/07 05:46:50;;;;;;;6.70;2.33;;;5.40;99.90;;;;;;5048623;28;20497;-63
2024/02/07 05:49:18;;;;;;;9.90;2.03;;;5.30;99.90;;;;;;5049341;28;20501;-64
2024/02/07 05:51:57;;;;;;;9.40;2.93;;;5.30;99.90;;;;;;5050364;28;20493;-63
2024/02/07 05:54:29;;;;;;;5.87;1.90;;;5.40;99.90;;;;;;5045015;28;20481;-63
2024/02/07 05:56:57;;;;;;;9.93;2.97;;;5.40;99.90;;;;;;5044914;28;20497;-63
2024/02/07 05:59:25;;;;;;;5.80;1.63;;;5.40;99.90;;;;;;5053146;28;20553;-63
2024/02/07 06:01:53;;;;;;;4.90;2.30;;;5.30;99.90;;;;;;5046225;28;20565;-64
2024/02/07 06:04:21;;;;;;;6.27;2.07;;;5.30;99.90;;;;;;5052402;28;20970;-62
2024/02/07 06:06:51;;;;;;;6.77;1.67;;;5.30;99.90;;;;;;5051508;28;21670;-61
2024/02/07 06:09:19;;;;;;;6.33;2.13;;;5.30;99.90;;;;;;5052375;28;20915;-63
2024/02/07 06:11:47;;;;;;;11.70;3.40;;;5.30;99.90;;;;;;5050107;28;21047;-63
2024/02/07 06:14:15;;;;;;;7.17;1.83;;;5.20;99.90;;;;;;5051603;28;20526;-62
2024/02/07 06:16:44;;;;;;;9.20;2.33;;;5.30;99.90;;;;;;5047354;28;20482;-63
2024/02/07 06:19:13;;;;;;;9.43;1.90;;;5.20;99.90;;;;;;5040939;28;20715;-67
2024/02/07 06:21:41;;;;;;;5.27;1.60;;;5.20;99.90;;;;;;5048114;28;20581;-63
2024/02/07 06:24:11;;;;;;;7.30;2.23;;;5.20;99.90;;;;;;5052632;28;20558;-62
2024/02/07 06:26:39;;;;;;;6.30;1.90;;;5.20;99.90;;;;;;5051491;28;20508;-63
2024/02/07 06:29:06;;;;;;;6.93;1.87;;;5.10;99.90;;;;;;5052502;28;20467;-62
2024/02/07 06:31:35;;;;;;;12.83;2.63;;;5.10;99.90;;;;;;5053234;28;20577;-63
2024/02/07 06:34:03;;;;;;;7.33;1.50;;;5.10;99.90;;;;;;5054177;28;20587;-63
2024/02/07 06:36:32;;;;;;;7.00;1.73;;;5.10;99.90;;;;;;5050787;28;20481;-62
2024/02/07 06:39:00;;;;;;;9.80;2.13;;;5.10;99.90;;;;;;5051660;28;20551;-61
2024/02/07 06:41:30;;;;;;;4.83;1.83;;;5.10;99.90;;;;;;5051325;28;20489;-62
2024/02/07 06:43:58;;;;;;;6.30;1.80;;;5.20;99.90;;;;;;5053516;28;20538;-63
2024/02/07 06:46:29;;;;;;;5.57;1.90;;;5.20;99.90;;;;;;5052148;28;22123;-62
2024/02/07 06:48:57;;;;;;;7.20;2.20;;;5.20;99.90;;;;;;5049344;28;20470;-62
2024/02/07 06:51:25;;;;;;;9.00;2.57;;;5.20;99.90;;;;;;5052454;28;20509;-62
2024/02/07 06:53:53;;;;;;;4.67;1.90;;;5.20;99.90;;;;;;5051955;28;20470;-62
2024/02/07 06:56:21;;;;;;;7.60;1.90;;;5.20;99.90;;;;;;5051384;28;21108;-63
2024/02/07 06:58:50;;;;;;;9.30;2.00;;;5.20;99.90;;;;;;5050082;28;20560;-62
2024/02/07 07:01:18;;;;;;;6.00;2.17;;;5.20;99.90;;;;;;5050810;28;20491;-62
2024/02/07 07:03:50;;;;;;;5.17;1.87;;;5.10;99.90;;;;;;5051710;28;20471;-63
2024/02/07 07:06:18;;;;;;;7.30;2.30;;;5.10;99.90;;;;;;5052240;28;21005;-61
2024/02/07 07:08:46;;;;;;;8.47;2.33;;;5.10;99.90;;;;;;5051463;28;20556;-63
2024/02/07 07:11:14;;;;;;;6.67;1.87;;;5.00;99.90;;;;;;5048222;28;20497;-63
2024/02/07 07:13:42;;;;;;;5.30;1.70;;;5.00;99.90;;;;;;5050877;28;20527;-63
2024/02/07 07:16:11;;;;;;;5.47;1.93;;;5.00;99.90;;;;;;5052803;28;20492;-62
2024/02/07 07:18:39;;;;;;;10.07;2.17;;;5.00;99.90;;;;;;5045583;28;20497;-63
2024/02/07 07:21:07;;;;;;;10.63;1.93;;;4.90;99.90;;;;;;5054341;28;20490;-63
2024/02/07 07:23:35;;;;;;;4.93;2.10;;;4.90;99.90;;;;;;5045890;28;20978;-62
2024/02/07 07:26:03;;;;;;;6.03;2.07;;;4.80;99.90;;;;;;5054698;28;20525;-62
2024/02/07 07:28:31;;;;;;;10.37;1.67;;;4.80;99.90;;;;;;5052484;28;20562;-63
2024/02/07 07:31:00;;;;;;;7.03;2.70;;;4.80;99.90;;;;;;5052108;28;20477;-63
2024/02/07 07:33:29;;;;;;;4.50;1.90;;;4.80;99.90;;;;;;5051391;28;20467;-62
2024/02/07 07:35:57;;;;;;;6.03;2.20;;;4.70;99.90;;;;;;5054328;28;20578;-63
2024/02/07 07:38:25;;;;;;;8.17;2.13;;;4.70;99.90;;;;;;5050041;28;20466;-62
2024/02/07 07:40:53;;;;;;;8.70;2.27;;;4.70;99.90;;;;;;5051982;28;20473;-62
2024/02/07 07:43:21;;;;;;;6.00;1.93;;;4.70;99.90;;;;;;5053743;28;20473;-63
2024/02/07 07:45:50;;;;;;;8.20;2.37;;;4.70;99.90;;;;;;5048661;28;20501;-61
2024/02/07 07:48:18;;;;;;;8.17;2.37;;;4.70;99.90;;;;;;5048504;28;20547;-62
2024/02/07 07:50:53;;;;;;;8.00;1.90;;;4.70;99.90;;;;;;5051975;28;20608;-62
2024/02/07 07:53:21;;;;;;;6.60;2.00;;;4.70;99.90;;;;;;5051722;28;20505;-63
2024/02/07 07:55:49;;;;;;;6.20;2.10;;;4.70;99.90;;;;;;5053117;28;20522;-62
2024/02/07 07:58:18;;;;;;;8.07;2.00;;;4.70;99.90;;;;;;5054345;28;20556;-62
2024/02/07 08:00:46;;;;;;;3.53;1.63;;;4.70;99.90;;;;;;5046930;28;20524;-63
2024/02/07 08:03:18;;;;;;;7.13;1.90;;;4.70;99.90;;;;;;5052349;28;20478;-63
2024/02/07 08:05:47;;;;;;;5.80;2.43;;;4.70;99.90;;;;;;5050767;28;20497;-63
2024/02/07 08:08:17;;;;;;;9.80;2.30;;;4.70;99.90;;;;;;5055851;28;20486;-62
2024/02/07 08:10:46;;;;;;;7.50;1.97;;;4.70;99.90;;;;;;5043843;28;20489;-63
2024/02/07 08:13:15;;;;;;;9.17;2.00;;;4.70;99.90;;;;;;5046802;28;21212;-63
2024/02/07 08:15:43;;;;;;;5.10;1.90;;;4.70;99.90;;;;;;5048321;28;20493;-62
2024/02/07 08:18:12;;;;;;;8.37;2.00;;;4.70;99.90;;;;;;5047635;28;20547;-62
2024/02/07 08:20:40;;;;;;;5.90;2.10;;;4.70;99.90;;;;;;5051423;28;20866;-63
2024/02/07 08:23:07;;;;;;;6.73;2.00;;;4.70;99.90;;;;;;5072113;28;20607;-63
2024/02/07 08:25:37;;;;;;;8.80;3.00;;;4.70;99.90;;;;;;5073820;28;20485;-63
2024/02/07 08:28:06;;;;;;;8.80;2.30;;;4.70;99.90;;;;;;5073721;28;20460;-63
2024/02/07 08:30:34;;;;;;;5.70;1.60;;;4.80;99.90;;;;;;5067747;28;21233;-63
2024/02/07 08:33:02;;;;;;;7.80;1.77;;;4.80;99.90;;;;;;5070041;28;20474;-62
2024/02/07 08:35:30;;;;;;;5.57;2.40;;;4.90;99.90;;;;;;5065803;28;20492;-61
2024/02/07 08:37:59;;;;;;;10.27;2.90;;;4.90;99.90;;;;;;5073221;28;20492;-63
2024/02/07 08:40:28;;;;;;;7.37;2.10;;;5.00;99.90;;;;;;5073296;28;20472;-63
2024/02/07 08:42:58;;;;;;;6.80;1.83;;;5.00;99.90;;;;;;5056142;28;20477;-63
2024/02/07 08:45:26;;;;;;;11.27;2.37;;;5.00;99.90;;;;;;5051115;28;20584;-62
2024/02/07 08:47:54;;;;;;;6.47;1.90;;;5.00;99.90;;;;;;5052063;28;20494;-63
2024/02/07 08:50:22;;;;;;;12.40;2.60;;;5.00;99.90;;;;;;5055012;28;20863;-62
2024/02/07 08:52:51;;;;;;;14.20;3.00;;;5.00;99.90;;;;;;5056139;28;20495;-62
2024/02/07 08:55:19;;;;;;;5.90;2.33;;;5.10;99.90;;;;;;5053193;28;20481;-62
2024/02/07 08:57:47;;;;;;;10.50;2.20;;;5.10;99.90;;;;;;5053757;28;20466;-63
2024/02/07 09:00:17;;;;;;;11.03;2.53;;;5.00;99.90;;;;;;5052227;28;20497;-62
2024/02/07 09:02:49;;;;;;;9.20;2.40;;;5.00;99.90;;;;;;5047370;28;20492;-63
2024/02/07 09:05:18;;;;;;;6.43;2.40;;;5.00;99.90;;;;;;5050656;28;20494;-62
2024/02/07 09:07:47;;;;;;;8.20;2.30;;;5.10;99.90;;;;;;5051851;28;20572;-62
2024/02/07 09:10:15;;;;;;;8.87;2.17;;;5.10;99.90;;;;;;5054132;28;20545;-62
2024/02/07 09:12:44;;;;;;;4.67;1.33;;;5.20;99.90;;;;;;5052612;28;20493;-61
2024/02/07 09:15:12;;;;;;;10.03;1.80;;;5.20;99.90;;;;;;5052685;28;20580;-62
2024/02/07 09:17:41;;;;;;;10.93;2.00;;;5.30;99.90;;;;;;5051361;28;20965;-61
2024/02/07 09:20:09;;;;;;;6.90;2.77;;;5.30;99.90;;;;;;5053041;28;20462;-63
2024/02/07 09:22:38;;;;;;;9.77;2.30;;;5.30;99.90;;;;;;5053596;28;21234;-60
2024/02/07 09:25:06;;;;;;;6.17;2.10;;;5.20;99.90;;;;;;5053515;28;20560;-63
2024/02/07 09:27:34;;;;;;;4.73;1.90;;;5.30;99.90;;;;;;5053148;28;21514;-61
2024/02/07 09:30:04;;;;;;;8.67;2.13;;;5.30;99.90;;;;;;5053933;28;20474;-61
2024/02/07 09:32:42;;;;;;;7.07;1.70;;;5.30;99.90;;;;;;5053917;28;20484;-62
2024/02/07 09:35:11;;;;;;;15.73;2.93;;;5.20;99.90;;;;;;5054749;28;21370;-61
2024/02/07 09:37:41;;;;;;;7.03;1.90;;;5.30;99.90;;;;;;5053697;28;20551;-61
2024/02/07 09:40:10;;;;;;;6.00;1.90;;;5.30;99.90;;;;;;5056182;28;21042;-62
2024/02/07 09:42:44;;;;;;;4.43;1.77;;;5.30;99.90;;;;;;5053855;28;20507;-62
2024/02/07 09:45:13;;;;;;;7.37;2.13;;;5.40;99.90;;;;;;5054755;28;20577;-62
2024/02/07 09:47:49;;;;;;;7.93;2.30;;;5.40;99.90;;;;;;5053702;28;20871;-63
2024/02/07 09:50:20;;;;;;;6.87;2.23;;;5.40;99.90;;;;;;5058760;28;20497;-62
2024/02/07 09:52:52;;;;;;;6.53;1.87;;;5.40;99.90;;;;;;5054006;28;20485;-64
2024/02/07 09:55:20;;;;;;;7.93;1.73;;;5.50;99.90;;;;;;5057688;28;20905;-62
2024/02/07 09:57:51;;;;;;;6.17;2.00;;;5.60;99.90;;;;;;5055107;28;20481;-62
2024/02/07 10:00:20;;;;;;;11.03;3.37;;;5.60;99.90;;;;;;5055193;28;20468;-61
2024/02/07 10:02:50;;;;;;;4.87;1.90;;;5.60;99.90;;;;;;5054886;28;20998;-61
2024/02/07 10:05:20;;;;;;;8.50;2.67;;;5.60;99.90;;;;;;5053115;28;20485;-61
2024/02/07 10:07:51;;;;;;;10.33;2.27;;;5.60;99.90;;;;;;5056496;28;21026;-61
2024/02/07 10:10:20;;;;;;;8.00;2.13;;;5.70;99.90;;;;;;5055976;28;20465;-62
2024/02/07 10:12:48;;;;;;;8.43;1.73;;;5.70;99.90;;;;;;5056091;28;20496;-62
2024/02/07 10:15:17;;;;;;;7.67;3.13;;;5.80;99.90;;;;;;5056702;28;21034;-62
2024/02/07 10:17:46;;;;;;;6.83;1.90;;;5.70;99.90;;;;;;5053269;28;20461;-62
2024/02/07 10:20:16;;;;;;;10.07;2.17;;;5.80;99.90;;;;;;5058436;28;20558;-62
2024/02/07 10:22:44;;;;;;;7.93;2.87;;;5.80;99.90;;;;;;5055722;28;21018;-61
2024/02/07 10:25:14;;;;;;;4.77;1.83;;;5.90;99.90;;;;;;5057803;28;20560;-63
2024/02/07 10:27:44;;;;;;;5.60;2.43;;;5.90;99.90;;;;;;5049260;28;20877;-61
2024/02/07 10:30:13;;;;;;;6.77;2.33;;;5.90;99.90;;;;;;5055148;28;20481;-61
2024/02/07 10:32:41;;;;;;;4.57;1.60;;;5.90;99.90;;;;;;5055576;28;20829;-62
2024/02/07 10:35:11;;;;;;;6.00;1.77;;;6.00;99.90;;;;;;5056240;28;20497;-62
2024/02/07 10:37:42;;;;;;;3.43;1.40;;;6.00;99.90;;;;;;5057973;28;20827;-62
2024/02/07 10:40:11;;;;;;;9.77;1.57;;;6.00;99.90;;;;;;5056839;28;20545;-62
2024/02/07 10:42:41;;;;;;;5.40;1.67;;;5.90;99.90;;;;;;5054624;28;20600;-62
2024/02/07 10:45:10;;;;;;;5.63;1.77;;;5.90;99.90;;;;;;5052152;28;21025;-62
2024/02/07 10:47:39;;;;;;;7.33;1.47;;;5.90;99.90;;;;;;5055455;28;20481;-62
2024/02/07 10:50:10;;;;;;;5.90;1.30;;;6.00;99.90;;;;;;5056719;28;20585;-63
2024/02/07 10:52:41;;;;;;;5.17;1.63;;;6.10;99.90;;;;;;5053506;28;20488;-63
2024/02/07 10:55:12;;;;;;;3.03;1.33;;;6.10;99.90;;;;;;5057066;28;20501;-62
2024/02/07 10:57:45;;;;;;;7.57;1.77;;;6.20;99.90;;;;;;5056187;28;21176;-62
2024/02/07 11:00:14;;;;;;;7.03;2.00;;;6.20;99.90;;;;;;5053263;28;20466;-63
2024/02/07 11:02:44;;;;;;;4.17;1.50;;;6.20;99.90;;;;;;5054995;28;20505;-62
2024/02/07 11:05:13;;;;;;;6.67;2.70;;;6.20;99.90;;;;;;5057633;28;20491;-63
2024/02/07 11:07:43;;;;;;;8.37;2.57;;;6.30;99.90;;;;;;5054657;28;20494;-63
2024/02/07 11:10:12;;;;;;;5.63;1.53;;;6.30;99.90;;;;;;5050845;28;20471;-63
2024/02/07 11:12:44;;;;;;;5.30;2.23;;;6.30;99.90;;;;;;5055816;28;20505;-63
2024/02/07 11:15:12;;;;;;;4.47;2.43;;;6.30;99.90;;;;;;5052398;28;20568;-62
2024/02/07 11:17:40;;;;;;;7.63;1.60;;;6.30;99.90;;;;;;5053684;28;20554;-62
2024/02/07 11:20:11;;;;;;;5.63;1.90;;;6.30;99.90;;;;;;5056911;28;20975;-62
2024/02/07 11:22:44;;;;;;;6.33;1.73;;;6.30;99.90;;;;;;5052996;28;20927;-63
2024/02/07 11:25:17;;;;;;;6.73;2.17;;;6.30;99.90;;;;;;5053356;28;20903;-62
2024/02/07 11:27:46;;;;;;;3.73;1.30;;;6.30;99.90;;;;;;5055623;28;20928;-63
2024/02/07 11:30:17;;;;;;;6.40;2.40;;;6.30;99.90;;;;;;5056106;28;21041;-63
2024/02/07 11:32:48;;;;;;;3.63;1.63;;;6.40;99.90;;;;;;5052525;28;20902;-63
2024/02/07 11:35:21;;;;;;;7.77;2.20;;;6.30;99.90;;;;;;5055513;28;20907;-62
2024/02/07 11:37:51;;;;;;;4.10;1.53;;;6.40;99.90;;;;;;5055645;28;20511;-63
2024/02/07 11:40:23;;;;;;;4.43;1.53;;;6.30;99.90;;;;;;5054163;28;20473;-63
2024/02/07 11:43:01;;;;;;;5.33;1.60;;;6.40;99.90;;;;;;5051020;28;20573;-66
2024/02/07 11:45:29;;;;;;;7.03;2.30;;;6.40;99.90;;;;;;5054963;28;20494;-69
2024/02/07 11:47:57;;;;;;;4.20;1.53;;;6.50;99.90;;;;;;5052161;28;20637;-62
2024/02/07 11:50:25;;;;;;;8.87;1.93;;;6.60;99.90;;;;;;5053138;28;20531;-62
2024/02/07 11:52:55;;;;;;;4.77;1.53;;;6.80;99.90;;;;;;5045779;28;20486;-62
2024/02/07 11:55:27;;;;;;;5.20;1.80;;;6.90;99.90;;;;;;5053139;28;21223;-63
2024/02/07 11:57:57;;;;;;;3.10;1.20;;;7.00;99.90;;;;;;5052210;28;20549;-63
2024/02/07 12:00:25;;;;;;;4.27;1.57;;;7.20;99.90;;;;;;5051286;28;20466;-63
2024/02/07 12:02:54;;;;;;;5.87;1.40;;;7.30;99.90;;;;;;5053839;28;20485;-63
2024/02/07 12:05:22;;;;;;;5.40;1.43;;;7.30;99.90;;;;;;5056625;28;21054;-62
2024/02/07 12:07:51;;;;;;;4.13;1.63;;;7.30;99.90;;;;;;5048604;28;20643;-62
2024/02/07 12:10:21;;;;;;;2.90;1.40;;;7.20;99.90;;;;;;5052665;28;20465;-62
2024/02/07 12:12:51;;;;;;;2.80;1.20;;;7.10;99.90;;;;;;5051330;28;21088;-63
2024/02/07 12:15:19;;;;;;;4.93;1.30;;;7.00;99.90;;;;;;5050806;28;21101;-63
2024/02/07 12:17:47;;;;;;;2.53;1.30;;;7.00;99.90;;;;;;5054129;28;20477;-63
2024/02/07 12:20:15;;;;;;;9.50;1.83;;;6.90;99.90;;;;;;5052511;28;20855;-62
2024/02/07 12:22:44;;;;;;;4.80;1.77;;;6.90;99.90;;;;;;5054016;28;20514;-62
2024/02/07 12:25:15;;;;;;;4.00;1.50;;;6.80;99.90;;;;;;5049270;28;20498;-62
2024/02/07 12:27:45;;;;;;;4.83;1.60;;;6.70;99.90;;;;;;5050022;28;20528;-62
2024/02/07 12:30:14;;;;;;;14.03;1.67;;;6.60;99.90;;;;;;5051969;28;20525;-62
2024/02/07 12:32:42;;;;;;;3.43;1.30;;;6.50;99.90;;;;;;5050584;28;20485;-63
2024/02/07 12:35:10;;;;;;;3.37;1.20;;;6.50;99.90;;;;;;5054828;28;21276;-63
2024/02/07 12:37:39;;;;;;;4.50;1.40;;;6.50;99.90;;;;;;5051651;28;20501;-61
2024/02/07 12:40:13;;;;;;;5.83;1.63;;;6.40;99.90;;;;;;5050653;28;20469;-62
2024/02/07 12:42:43;;;;;;;5.40;1.40;;;6.40;99.90;;;;;;5053759;28;20478;-63
2024/02/07 12:45:13;;;;;;;5.43;1.33;;;6.40;99.90;;;;;;5052143;28;21624;-62
2024/02/07 12:47:43;;;;;;;3.23;1.60;;;6.40;99.90;;;;;;5052911;28;20481;-63
2024/02/07 12:50:12;;;;;;;5.13;1.60;;;6.40;99.90;;;;;;5046577;28;20482;-63
2024/02/07 12:52:40;;;;;;;3.13;2.00;;;6.40;99.90;;;;;;5052243;28;21081;-63
2024/02/07 12:55:12;;;;;;;3.03;1.10;;;6.50;99.90;;;;;;5052591;28;20486;-63
2024/02/07 12:57:40;;;;;;;6.33;1.37;;;6.50;99.90;;;;;;5053234;28;20554;-63
2024/02/07 13:00:10;;;;;;;5.00;1.60;;;6.50;99.90;;;;;;5053422;28;20466;-63
2024/02/07 13:02:46;;;;;;;3.80;1.83;;;6.50;99.90;;;;;;5050735;28;20551;-63
2024/02/07 13:05:14;;;;;;;4.17;1.23;;;6.50;99.90;;;;;;5051767;28;20498;-63
2024/02/07 13:07:44;;;;;;;2.50;1.53;;;6.50;99.90;;;;;;5054516;28;20530;-62
2024/02/07 13:10:12;;;;;;;5.03;1.60;;;6.50;99.90;;;;;;5053454;28;20496;-61
2024/02/07 13:12:41;;;;;;;5.27;1.60;;;6.50;99.90;;;;;;5043326;28;20482;-62
2024/02/07 13:15:14;;;;;;;3.83;1.50;;;6.50;99.90;;;;;;5053191;28;20498;-63
2024/02/07 13:17:44;;;;;;;4.70;1.40;;;6.50;99.90;;;;;;5045065;28;20750;-62
2024/02/07 13:20:13;;;;;;;2.80;1.20;;;6.60;99.90;;;;;;5050854;28;20470;-62
2024/02/07 13:22:42;;;;;;;2.60;1.30;;;6.60;99.90;;;;;;5051648;28;20473;-62
2024/02/07 13:25:11;;;;;;;5.23;1.17;;;6.50;99.90;;;;;;5054905;28;20501;-63
2024/02/07 13:27:40;;;;;;;4.63;1.47;;;6.30;99.90;;;;;;5052394;28;20488;-61
2024/02/07 13:30:09;;;;;;;3.20;1.30;;;6.30;99.90;;;;;;5052955;28;20572;-62
2024/02/07 13:32:37;;;;;;;2.47;1.00;;;6.20;99.90;;;;;;5051004;28;20531;-63
2024/02/07 13:35:07;;;;;;;3.67;1.03;;;6.20;99.90;;;;;;5048946;28;20926;-62
2024/02/07 13:37:35;;;;;;;5.23;1.60;;;6.30;99.90;;;;;;5047037;28;20473;-62
2024/02/07 13:40:04;;;;;;;3.90;1.80;;;6.30;99.90;;;;;;5052379;28;20472;-62
2024/02/07 13:42:32;;;;;;;5.97;1.70;;;6.30;99.90;;;;;;5051521;28;21005;-63
2024/02/07 13:45:00;;;;;;;4.03;1.37;;;6.40;99.90;;;;;;5051781;28;20500;-62
2024/02/07 13:47:28;;;;;;;4.97;1.70;;;6.40;99.90;;;;;;5053357;28;20470;-62
2024/02/07 13:49:56;;;;;;;6.20;2.13;;;6.50;99.90;;;;;;5050628;28;20494;-62
2024/02/07 13:52:25;;;;;;;6.33;1.60;;;6.50;99.90;;;;;;5052953;28;20493;-63
2024/02/07 13:54:55;;;;;;;3.67;1.60;;;6.60;99.90;;;;;;5049714;28;20469;-62
2024/02/07 13:57:23;;;;;;;5.10;1.60;;;6.60;99.90;;;;;;5049511;28;20556;-61
2024/02/07 13:59:51;;;;;;;3.87;1.70;;;6.70;99.90;;;;;;5049467;28;20604;-62
2024/02/07 14:02:19;;;;;;;5.17;2.23;;;6.70;99.90;;;;;;5050635;28;20573;-61
2024/02/07 14:04:47;;;;;;;7.63;2.37;;;6.70;99.90;;;;;;5052952;28;20556;-62
2024/02/07 14:07:15;;;;;;;3.40;1.53;;;6.80;99.90;;;;;;5054073;28;20473;-61
2024/02/07 14:09:45;;;;;;;5.00;1.60;;;6.80;99.90;;;;;;5053359;28;20504;-62
2024/02/07 14:12:13;;;;;;;1.33;1.10;;;6.80;99.90;;;;;;5050218;28;20485;-62